createdAt,value
2023-08-31T00:00:59.568Z,46.7
2023-08-31T00:02:12.847Z,46.7
2023-08-31T00:03:25.404Z,46.7
2023-08-31T00:04:28.867Z,46.7
2023-08-31T00:05:41.386Z,46.7
2023-08-31T00:06:54.862Z,46.7
2023-08-31T00:07:57.399Z,46.7
2023-08-31T00:09:10.863Z,46.7
2023-08-31T00:10:23.298Z,46.7
2023-08-31T00:11:36.355Z,46.6
2023-08-31T00:12:38.921Z,46.7
2023-08-31T00:13:52.394Z,46.6
2023-08-31T00:15:04.863Z,46.6
2023-08-31T00:16:08.592Z,46.6
2023-08-31T00:17:21.092Z,46.6
2023-08-31T00:18:34.391Z,46.6
2023-08-31T00:19:36.957Z,46.6
2023-08-31T00:20:50.390Z,46.5
2023-08-31T00:22:02.859Z,46.5
2023-08-31T00:23:16.384Z,46.5
2023-08-31T00:24:18.938Z,46.5
2023-08-31T00:25:32.375Z,46.5
2023-08-31T00:26:44.856Z,46.5
2023-08-31T00:27:48.396Z,46.5
2023-08-31T00:29:00.858Z,46.6
2023-08-31T00:30:14.406Z,46.5
2023-08-31T00:31:17.043Z,46.5
2023-08-31T00:32:30.368Z,46.5
2023-08-31T00:33:43.019Z,46.5
2023-08-31T00:34:46.372Z,46.5
2023-08-31T00:35:58.851Z,46.6
2023-08-31T00:37:11.926Z,46.5
2023-08-31T00:38:24.416Z,46.5
2023-08-31T00:39:27.875Z,46.5
2023-08-31T00:40:40.360Z,46.5
2023-08-31T00:41:53.364Z,46.6
2023-08-31T00:42:55.905Z,46.6
2023-08-31T00:44:09.369Z,46.6
2023-08-31T00:45:21.813Z,46.6
2023-08-31T00:46:25.438Z,46.6
2023-08-31T00:47:38.129Z,46.6
2023-08-31T00:48:51.396Z,46.6
2023-08-31T00:49:54.039Z,46.6
2023-08-31T00:51:07.399Z,46.6
2023-08-31T00:52:19.885Z,46.6
2023-08-31T00:53:33.370Z,46.6
2023-08-31T00:54:35.927Z,46.6
2023-08-31T00:55:49.410Z,46.6
2023-08-31T00:57:01.901Z,46.6
2023-08-31T00:58:05.372Z,46.6
2023-08-31T00:59:17.819Z,46.6
2023-08-31T01:00:30.904Z,46.6
2023-08-31T01:01:43.421Z,46.6
2023-08-31T01:02:50.137Z,46.6
2023-08-31T01:03:53.674Z,46.6
2023-08-31T01:05:06.920Z,46.6
2023-08-31T01:06:19.403Z,46.6
2023-08-31T01:07:32.869Z,46.6
2023-08-31T01:08:35.548Z,46.6
2023-08-31T01:09:48.930Z,46.6
2023-08-31T01:11:01.380Z,46.6
2023-08-31T01:12:04.929Z,46.7
2023-08-31T01:13:17.388Z,46.6
2023-08-31T01:14:30.916Z,46.6
2023-08-31T01:15:33.465Z,46.7
2023-08-31T01:16:46.922Z,46.6
2023-08-31T01:17:59.443Z,46.7
2023-08-31T01:19:12.922Z,46.7
2023-08-31T01:20:15.730Z,46.6
2023-08-31T01:21:28.872Z,46.7
2023-08-31T01:22:41.349Z,46.7
2023-08-31T01:23:44.911Z,46.7
2023-08-31T01:24:57.407Z,46.8
2023-08-31T01:26:10.881Z,46.7
2023-08-31T01:27:13.417Z,46.7
2023-08-31T01:28:26.887Z,46.8
2023-08-31T01:29:39.375Z,46.8
2023-08-31T01:30:42.902Z,46.8
2023-08-31T01:31:55.467Z,46.8
2023-08-31T01:33:08.932Z,46.8
2023-08-31T01:34:11.570Z,46.8
2023-08-31T01:35:24.923Z,46.8
2023-08-31T01:36:37.401Z,46.8
2023-08-31T01:37:50.892Z,46.8
2023-08-31T01:38:53.459Z,46.8
2023-08-31T01:40:06.901Z,46.8
2023-08-31T01:41:19.384Z,46.8
2023-08-31T01:42:22.926Z,46.9
2023-08-31T01:43:35.406Z,46.9
2023-08-31T01:44:48.901Z,46.9
2023-08-31T01:45:51.488Z,46.9
2023-08-31T01:47:04.890Z,46.9
2023-08-31T01:48:17.388Z,47.0
2023-08-31T01:49:20.909Z,47.0
2023-08-31T01:50:33.412Z,47.0
2023-08-31T01:51:46.904Z,47.0
2023-08-31T01:52:49.497Z,47.0
2023-08-31T01:54:02.889Z,47.0
2023-08-31T01:55:15.377Z,47.0
2023-08-31T01:56:28.424Z,47.0
2023-08-31T01:57:30.995Z,47.0
2023-08-31T01:58:44.395Z,47.1
2023-08-31T01:59:56.884Z,47.1
2023-08-31T02:01:00.407Z,47.1
2023-08-31T02:02:13.039Z,47.1
2023-08-31T02:03:26.529Z,47.2
2023-08-31T02:04:29.191Z,47.2
2023-08-31T02:05:42.405Z,47.2
2023-08-31T02:06:54.910Z,47.1
2023-08-31T02:07:58.416Z,47.2
2023-08-31T02:09:10.946Z,47.2
2023-08-31T02:10:24.437Z,47.2
2023-08-31T02:11:36.954Z,47.2
2023-08-31T02:12:40.421Z,47.2
2023-08-31T02:13:52.928Z,47.2
2023-08-31T02:15:06.404Z,47.2
2023-08-31T02:16:09.047Z,47.2
2023-08-31T02:17:22.445Z,47.2
2023-08-31T02:18:34.987Z,47.2
2023-08-31T02:19:38.437Z,47.3
2023-08-31T02:20:50.973Z,47.3
2023-08-31T02:22:04.427Z,47.3
2023-08-31T02:23:07.140Z,47.3
2023-08-31T02:24:20.454Z,47.3
2023-08-31T02:25:32.957Z,47.3
2023-08-31T02:26:46.445Z,47.3
2023-08-31T02:27:49.042Z,47.3
2023-08-31T02:29:02.430Z,47.3
2023-08-31T02:30:15.020Z,47.3
2023-08-31T02:31:18.447Z,47.3
2023-08-31T02:32:31.070Z,47.3
2023-08-31T02:33:44.423Z,47.4
2023-08-31T02:34:47.043Z,47.3
2023-08-31T02:36:00.436Z,47.3
2023-08-31T02:37:12.966Z,47.3
2023-08-31T02:38:16.432Z,47.4
2023-08-31T02:39:28.964Z,47.4
2023-08-31T02:40:42.418Z,47.4
2023-08-31T02:41:54.969Z,47.4
2023-08-31T02:42:58.915Z,47.4
2023-08-31T02:44:11.469Z,47.4
2023-08-31T02:45:24.920Z,47.4
2023-08-31T02:46:27.714Z,47.4
2023-08-31T02:47:40.996Z,47.4
2023-08-31T02:48:53.726Z,47.4
2023-08-31T02:49:57.471Z,47.4
2023-08-31T02:51:10.108Z,47.4
2023-08-31T02:52:23.438Z,47.5
2023-08-31T02:53:26.055Z,47.5
2023-08-31T02:54:39.437Z,47.5
2023-08-31T02:55:51.978Z,47.5
2023-08-31T02:56:55.413Z,47.5
2023-08-31T02:58:07.999Z,47.5
2023-08-31T02:59:21.452Z,47.5
2023-08-31T03:00:24.069Z,47.6
2023-08-31T03:01:37.452Z,47.5
2023-08-31T03:02:50.162Z,47.6
2023-08-31T03:04:03.923Z,47.6
2023-08-31T03:05:06.726Z,47.6
2023-08-31T03:06:19.956Z,47.6
2023-08-31T03:07:32.479Z,47.6
2023-08-31T03:08:35.955Z,47.6
2023-08-31T03:09:48.494Z,47.6
2023-08-31T03:11:01.948Z,47.6
2023-08-31T03:12:04.568Z,47.6
2023-08-31T03:13:17.907Z,47.6
2023-08-31T03:14:30.524Z,47.6
2023-08-31T03:15:43.949Z,47.6
2023-08-31T03:16:46.614Z,47.7
2023-08-31T03:17:59.940Z,47.7
2023-08-31T03:19:12.529Z,47.7
2023-08-31T03:20:15.969Z,47.7
2023-08-31T03:21:28.514Z,47.7
2023-08-31T03:22:41.929Z,47.7
2023-08-31T03:23:44.534Z,47.7
2023-08-31T03:24:57.962Z,47.7
2023-08-31T03:26:10.907Z,47.7
2023-08-31T03:27:17.375Z,47.8
2023-08-31T03:28:30.315Z,47.8
2023-08-31T03:29:33.934Z,47.8
2023-08-31T03:30:46.665Z,47.7
2023-08-31T03:31:59.967Z,47.7
2023-08-31T03:33:12.739Z,47.8
2023-08-31T03:34:16.466Z,47.8
2023-08-31T03:35:29.024Z,47.8
2023-08-31T03:36:42.423Z,47.8
2023-08-31T03:37:45.038Z,47.8
2023-08-31T03:38:58.460Z,47.8
2023-08-31T03:40:11.021Z,47.9
2023-08-31T03:41:14.432Z,47.9
2023-08-31T03:42:27.035Z,47.9
2023-08-31T03:43:40.472Z,47.8
2023-08-31T03:44:44.458Z,47.9
2023-08-31T03:45:58.004Z,47.8
2023-08-31T03:47:10.685Z,47.9
2023-08-31T03:48:13.968Z,47.9
2023-08-31T03:49:26.484Z,48.0
2023-08-31T03:50:39.972Z,48.0
2023-08-31T03:51:42.597Z,48.1
2023-08-31T03:52:55.943Z,48.1
2023-08-31T03:54:08.482Z,48.1
2023-08-31T03:55:22.003Z,48.1
2023-08-31T03:56:24.606Z,48.2
2023-08-31T03:57:37.976Z,48.2
2023-08-31T03:58:51.804Z,48.2
2023-08-31T03:59:55.427Z,48.3
2023-08-31T04:01:08.020Z,48.3
2023-08-31T04:02:21.445Z,48.3
2023-08-31T04:03:24.126Z,48.4
2023-08-31T04:04:37.458Z,48.4
2023-08-31T04:05:50.054Z,48.4
2023-08-31T04:06:53.445Z,48.4
2023-08-31T04:08:05.995Z,48.5
2023-08-31T04:09:19.446Z,48.5
2023-08-31T04:10:32.025Z,48.5
2023-08-31T04:11:35.436Z,48.7
2023-08-31T04:12:47.992Z,48.9
2023-08-31T04:14:01.459Z,49.0
2023-08-31T04:15:05.668Z,49.2
2023-08-31T04:16:19.477Z,49.3
2023-08-31T04:17:22.124Z,49.4
2023-08-31T04:18:36.033Z,49.8
2023-08-31T04:19:48.703Z,49.9
2023-08-31T04:21:01.965Z,49.8
2023-08-31T04:22:04.653Z,49.8
2023-08-31T04:23:17.949Z,49.8
2023-08-31T04:24:30.506Z,49.9
2023-08-31T04:25:33.969Z,49.8
2023-08-31T04:26:46.516Z,49.8
2023-08-31T04:27:59.959Z,49.8
2023-08-31T04:29:03.284Z,49.9
2023-08-31T04:30:16.448Z,49.8
2023-08-31T04:31:30.196Z,49.8
2023-08-31T04:32:33.993Z,49.9
2023-08-31T04:33:46.541Z,49.9
2023-08-31T04:34:59.954Z,49.8
2023-08-31T04:36:02.593Z,49.8
2023-08-31T04:37:15.959Z,49.9
2023-08-31T04:38:28.503Z,49.9
2023-08-31T04:39:41.979Z,49.9
2023-08-31T04:40:44.743Z,50.0
2023-08-31T04:41:57.994Z,50.0
2023-08-31T04:43:10.707Z,50.0
2023-08-31T04:44:14.480Z,50.0
2023-08-31T04:45:27.030Z,50.0
2023-08-31T04:46:40.450Z,50.0
2023-08-31T04:47:43.087Z,50.0
2023-08-31T04:48:56.482Z,50.1
2023-08-31T04:50:09.061Z,50.1
2023-08-31T04:51:12.456Z,50.1
2023-08-31T04:52:24.981Z,50.2
2023-08-31T04:53:38.487Z,50.2
2023-08-31T04:54:51.003Z,50.3
2023-08-31T04:55:54.458Z,50.6
2023-08-31T04:57:07.027Z,50.6
2023-08-31T04:58:20.489Z,50.7
2023-08-31T04:59:23.093Z,50.6
2023-08-31T05:00:36.442Z,50.7
2023-08-31T05:01:49.012Z,50.6
2023-08-31T05:02:52.524Z,50.6
2023-08-31T05:04:05.241Z,50.5
2023-08-31T05:05:18.490Z,50.5
2023-08-31T05:06:21.134Z,50.5
2023-08-31T05:07:34.481Z,50.5
2023-08-31T05:08:47.033Z,50.5
2023-08-31T05:10:00.505Z,50.5
2023-08-31T05:11:03.178Z,50.5
2023-08-31T05:12:16.468Z,50.4
2023-08-31T05:13:28.950Z,50.5
2023-08-31T05:14:32.442Z,50.4
2023-08-31T05:15:44.891Z,50.2
2023-08-31T05:16:58.007Z,49.9
2023-08-31T05:18:00.672Z,49.6
2023-08-31T05:19:13.973Z,49.5
2023-08-31T05:20:27.951Z,49.3
2023-08-31T05:21:31.504Z,49.1
2023-08-31T05:22:43.900Z,48.9
2023-08-31T05:23:56.957Z,48.6
2023-08-31T05:25:09.300Z,48.6
2023-08-31T05:26:12.490Z,48.3
2023-08-31T05:27:24.809Z,48.2
2023-08-31T05:28:37.978Z,48.0
2023-08-31T05:29:40.357Z,47.8
2023-08-31T05:30:53.490Z,47.6
2023-08-31T05:32:05.755Z,47.4
2023-08-31T05:33:19.105Z,47.3
2023-08-31T05:34:21.601Z,47.1
2023-08-31T05:35:34.510Z,46.9
2023-08-31T05:36:46.813Z,46.8
2023-08-31T05:37:49.992Z,46.8
2023-08-31T05:39:02.241Z,46.6
2023-08-31T05:40:15.511Z,46.6
2023-08-31T05:41:27.751Z,46.6
2023-08-31T05:42:30.972Z,46.5
2023-08-31T05:43:43.234Z,46.4
2023-08-31T05:44:57.953Z,46.2
2023-08-31T05:46:00.327Z,46.2
2023-08-31T05:47:13.472Z,46.1
2023-08-31T05:48:25.855Z,46.0
2023-08-31T05:49:28.972Z,46.0
2023-08-31T05:50:41.204Z,45.9
2023-08-31T05:51:54.015Z,45.8
2023-08-31T05:52:56.348Z,45.7
2023-08-31T05:54:09.514Z,45.7
2023-08-31T05:55:21.726Z,45.6
2023-08-31T05:56:34.976Z,45.6
2023-08-31T05:57:37.377Z,45.5
2023-08-31T05:58:50.494Z,45.4
2023-08-31T06:00:02.851Z,45.3
2023-08-31T06:01:07.432Z,45.3
2023-08-31T06:02:19.701Z,45.3
2023-08-31T06:03:32.466Z,45.3
2023-08-31T06:04:34.930Z,45.2
2023-08-31T06:05:48.008Z,45.1
2023-08-31T06:07:00.192Z,45.1
2023-08-31T06:08:13.005Z,45.0
2023-08-31T06:09:15.595Z,45.0
2023-08-31T06:10:28.526Z,44.9
2023-08-31T06:11:40.703Z,44.9
2023-08-31T06:12:43.995Z,44.9
2023-08-31T06:13:56.205Z,44.9
2023-08-31T06:15:09.472Z,44.9
2023-08-31T06:16:21.861Z,44.8
2023-08-31T06:17:25.010Z,44.8
2023-08-31T06:18:37.333Z,44.7
2023-08-31T06:19:50.493Z,44.7
2023-08-31T06:20:52.863Z,44.7
2023-08-31T06:22:05.988Z,44.7
2023-08-31T06:23:18.247Z,44.7
2023-08-31T06:24:31.471Z,44.7
2023-08-31T06:25:33.848Z,44.7
2023-08-31T06:26:47.010Z,44.6
2023-08-31T06:27:59.269Z,44.6
2023-08-31T06:29:02.508Z,44.6
2023-08-31T06:30:14.722Z,44.6
2023-08-31T06:31:27.538Z,44.6
2023-08-31T06:32:39.883Z,44.5
2023-08-31T06:33:42.988Z,44.5
2023-08-31T06:34:55.245Z,44.5
2023-08-31T06:36:07.975Z,44.4
2023-08-31T06:37:10.362Z,44.4
2023-08-31T06:38:23.485Z,44.4
2023-08-31T06:39:35.743Z,44.4
2023-08-31T06:40:49.022Z,44.4
2023-08-31T06:41:51.398Z,44.3
2023-08-31T06:43:04.503Z,44.3
2023-08-31T06:44:16.785Z,44.3
2023-08-31T06:45:19.993Z,44.3
2023-08-31T06:46:32.276Z,44.3
2023-08-31T06:47:45.552Z,44.2
2023-08-31T06:48:48.008Z,44.2
2023-08-31T06:50:01.076Z,44.2
2023-08-31T06:51:13.494Z,44.2
2023-08-31T06:53:31.682Z,44.1
2023-08-31T06:54:45.007Z,44.1
2023-08-31T06:55:47.412Z,44.1
2023-08-31T06:57:00.497Z,44.1
2023-08-31T06:58:12.788Z,44.1
2023-08-31T06:59:26.005Z,44.0
2023-08-31T07:00:28.306Z,44.0
2023-08-31T07:01:41.540Z,44.0
2023-08-31T07:02:53.882Z,43.9
2023-08-31T07:03:57.061Z,44.0
2023-08-31T07:05:09.471Z,43.9
2023-08-31T07:06:22.496Z,44.0
2023-08-31T07:07:34.768Z,43.9
2023-08-31T07:08:38.039Z,43.9
2023-08-31T07:09:50.213Z,43.9
2023-08-31T07:11:03.006Z,43.9
2023-08-31T07:12:05.329Z,43.8
2023-08-31T07:13:18.539Z,43.7
2023-08-31T07:14:30.826Z,43.8
2023-08-31T07:15:44.128Z,43.8
2023-08-31T07:16:46.460Z,43.8
2023-08-31T07:17:59.502Z,43.8
2023-08-31T07:19:11.788Z,43.8
2023-08-31T07:20:16.614Z,43.8
2023-08-31T07:21:28.862Z,43.7
2023-08-31T07:22:42.019Z,43.8
2023-08-31T07:23:44.358Z,43.8
2023-08-31T07:24:57.501Z,43.8
2023-08-31T07:26:09.764Z,43.7
2023-08-31T07:27:23.025Z,43.7
2023-08-31T07:28:25.357Z,43.6
2023-08-31T07:29:38.517Z,43.6
2023-08-31T07:30:50.807Z,43.6
2023-08-31T07:31:54.032Z,43.6
2023-08-31T07:33:14.101Z,43.6
2023-08-31T07:34:18.026Z,43.5
2023-08-31T07:35:30.180Z,43.4
2023-08-31T07:36:35.045Z,43.5
2023-08-31T07:37:47.321Z,43.4
2023-08-31T07:39:00.544Z,43.4
2023-08-31T07:40:02.864Z,43.3
2023-08-31T07:41:16.040Z,43.3
2023-08-31T07:42:28.427Z,43.3
2023-08-31T07:43:48.302Z,43.3
2023-08-31T07:44:41.409Z,43.3
2023-08-31T07:45:53.654Z,43.3
2023-08-31T07:47:06.538Z,43.2
2023-08-31T07:48:18.714Z,43.1
2023-08-31T07:49:22.035Z,43.1
2023-08-31T07:50:34.261Z,43.1
2023-08-31T07:51:47.505Z,43.1
2023-08-31T07:52:49.890Z,43.1
2023-08-31T07:54:03.030Z,43.0
2023-08-31T07:55:15.285Z,43.0
2023-08-31T07:56:28.048Z,42.9
2023-08-31T07:57:30.363Z,42.9
2023-08-31T07:58:43.511Z,42.9
2023-08-31T07:59:55.719Z,42.8
2023-08-31T08:01:09.022Z,42.8
2023-08-31T08:02:11.516Z,42.7
2023-08-31T08:03:24.674Z,42.7
2023-08-31T08:04:37.113Z,42.7
2023-08-31T08:05:40.533Z,42.7
2023-08-31T08:06:52.787Z,42.7
2023-08-31T08:08:06.019Z,42.7
2023-08-31T08:09:08.313Z,42.7
2023-08-31T08:10:21.538Z,42.7
2023-08-31T08:11:33.773Z,42.7
2023-08-31T08:12:47.073Z,42.6
2023-08-31T08:13:49.447Z,42.7
2023-08-31T08:15:02.561Z,42.6
2023-08-31T08:16:14.763Z,42.6
2023-08-31T08:17:19.486Z,42.6
2023-08-31T08:18:41.431Z,42.5
2023-08-31T08:19:44.526Z,42.6
2023-08-31T08:20:46.867Z,42.5
2023-08-31T08:22:00.005Z,42.5
2023-08-31T08:23:12.449Z,42.5
2023-08-31T08:24:16.004Z,42.5
2023-08-31T08:25:28.226Z,42.5
2023-08-31T08:26:41.523Z,42.4
2023-08-31T08:27:43.833Z,42.4
2023-08-31T08:28:57.026Z,42.4
2023-08-31T08:30:09.489Z,42.4
2023-08-31T08:31:23.430Z,42.4
2023-08-31T08:32:27.253Z,42.3
2023-08-31T08:33:40.570Z,42.3
2023-08-31T08:34:42.934Z,42.3
2023-08-31T08:35:56.097Z,42.3
2023-08-31T08:37:08.387Z,42.3
2023-08-31T08:38:21.552Z,42.3
2023-08-31T08:39:23.832Z,42.2
2023-08-31T08:40:37.038Z,42.2
2023-08-31T08:41:49.252Z,42.2
2023-08-31T08:42:52.532Z,42.2
2023-08-31T08:44:04.790Z,42.1
2023-08-31T08:45:18.054Z,42.1
2023-08-31T08:46:20.428Z,42.1
2023-08-31T08:47:33.540Z,42.1
2023-08-31T08:48:45.901Z,42.1
2023-08-31T08:49:59.062Z,42.1
2023-08-31T08:51:01.361Z,42.1
2023-08-31T08:52:15.028Z,42.2
2023-08-31T08:53:27.249Z,42.2
2023-08-31T08:54:30.613Z,42.1
2023-08-31T08:55:42.884Z,42.1
2023-08-31T08:56:56.037Z,42.1
2023-08-31T08:57:58.540Z,42.1
2023-08-31T08:59:11.585Z,42.1
2023-08-31T09:00:23.844Z,42.1
2023-08-31T09:01:37.080Z,42.1
2023-08-31T09:02:39.500Z,42.1
2023-08-31T09:03:52.560Z,42.2
2023-08-31T09:05:04.836Z,42.1
2023-08-31T09:06:08.079Z,42.1
2023-08-31T09:07:20.287Z,42.2
2023-08-31T09:08:33.057Z,42.2
2023-08-31T09:09:45.268Z,42.2
2023-08-31T09:10:48.571Z,42.2
2023-08-31T09:12:00.758Z,42.2
2023-08-31T09:13:13.549Z,42.1
2023-08-31T09:14:15.893Z,42.1
2023-08-31T09:15:29.032Z,42.1
2023-08-31T09:16:41.286Z,42.1
2023-08-31T09:17:54.629Z,42.1
2023-08-31T09:18:57.077Z,42.1
2023-08-31T09:20:10.038Z,42.1
2023-08-31T09:21:22.277Z,42.1
2023-08-31T09:22:27.087Z,42.1
2023-08-31T09:23:39.274Z,42.1
2023-08-31T09:24:53.942Z,42.1
2023-08-31T09:25:56.394Z,42.1
2023-08-31T09:27:11.048Z,42.1
2023-08-31T09:28:13.294Z,42.0
2023-08-31T09:29:26.049Z,42.0
2023-08-31T09:30:38.265Z,42.0
2023-08-31T09:31:51.142Z,42.0
2023-08-31T09:32:53.607Z,42.0
2023-08-31T09:34:06.557Z,42.0
2023-08-31T09:35:24.902Z,42.0
2023-08-31T09:36:30.024Z,42.0
2023-08-31T09:37:32.398Z,42.0
2023-08-31T09:38:45.562Z,41.9
2023-08-31T09:39:57.834Z,42.0
2023-08-31T09:41:10.567Z,41.9
2023-08-31T09:42:12.922Z,41.9
2023-08-31T09:43:26.036Z,41.9
2023-08-31T09:44:38.198Z,41.8
2023-08-31T09:45:46.195Z,41.9
2023-08-31T09:46:58.810Z,41.8
2023-08-31T09:48:02.107Z,41.8
2023-08-31T09:49:14.433Z,41.8
2023-08-31T09:50:27.572Z,41.8
2023-08-31T09:51:29.871Z,41.8
2023-08-31T09:52:42.588Z,41.7
2023-08-31T09:53:54.754Z,41.7
2023-08-31T09:55:07.566Z,41.7
2023-08-31T09:56:09.854Z,41.7
2023-08-31T09:57:36.120Z,41.7
2023-08-31T09:58:36.707Z,41.7
2023-08-31T09:59:38.972Z,41.6
2023-08-31T10:00:52.117Z,41.6
2023-08-31T10:02:04.531Z,41.6
2023-08-31T10:03:08.643Z,41.5
2023-08-31T10:04:20.936Z,41.5
2023-08-31T10:05:34.094Z,41.5
2023-08-31T10:06:36.404Z,41.4
2023-08-31T10:07:49.551Z,41.4
2023-08-31T10:09:01.881Z,41.3
2023-08-31T10:10:14.578Z,41.2
2023-08-31T10:11:16.762Z,41.2
2023-08-31T10:12:29.541Z,41.1
2023-08-31T10:13:41.920Z,41.0
2023-08-31T10:14:55.086Z,41.0
2023-08-31T10:15:57.368Z,40.9
2023-08-31T10:17:10.081Z,40.8
2023-08-31T10:18:22.362Z,40.8
2023-08-31T10:19:25.562Z,40.7
2023-08-31T10:20:37.601Z,40.5
2023-08-31T10:21:50.594Z,40.4
2023-08-31T10:23:02.915Z,40.3
2023-08-31T10:24:06.117Z,40.3
2023-08-31T10:25:18.285Z,40.2
2023-08-31T10:26:31.057Z,40.2
2023-08-31T10:27:33.514Z,40.1
2023-08-31T10:28:46.593Z,40.1
2023-08-31T10:29:58.725Z,40.1
2023-08-31T10:31:11.662Z,40.0
2023-08-31T10:32:14.115Z,40.0
2023-08-31T10:33:27.083Z,40.0
2023-08-31T10:34:39.200Z,40.0
2023-08-31T10:35:52.104Z,39.9
2023-08-31T10:37:04.610Z,39.9
2023-08-31T10:38:11.615Z,39.9
2023-08-31T10:39:14.033Z,39.8
2023-08-31T10:40:27.086Z,39.9
2023-08-31T10:41:40.184Z,39.8
2023-08-31T10:42:43.603Z,39.8
2023-08-31T10:43:55.733Z,39.8
2023-08-31T10:45:08.604Z,39.8
2023-08-31T10:46:10.820Z,39.8
2023-08-31T10:47:23.630Z,39.8
2023-08-31T10:48:37.054Z,39.7
2023-08-31T10:49:50.108Z,39.6
2023-08-31T10:50:52.354Z,39.5
2023-08-31T10:52:05.089Z,39.5
2023-08-31T10:53:17.198Z,39.4
2023-08-31T10:54:20.674Z,39.3
2023-08-31T10:55:32.891Z,39.2
2023-08-31T10:56:45.583Z,39.0
2023-08-31T10:57:57.610Z,38.9
2023-08-31T10:59:01.099Z,38.9
2023-08-31T11:00:13.179Z,38.7
2023-08-31T11:01:26.115Z,38.6
2023-08-31T11:02:28.332Z,38.5
2023-08-31T11:03:41.163Z,38.5
2023-08-31T11:04:54.352Z,38.5
2023-08-31T11:05:58.075Z,38.3
2023-08-31T11:07:10.189Z,38.3
2023-08-31T11:08:23.073Z,38.3
2023-08-31T11:09:35.171Z,38.2
2023-08-31T11:10:38.098Z,38.2
2023-08-31T11:11:51.311Z,38.2
2023-08-31T11:13:04.098Z,38.0
2023-08-31T11:14:06.466Z,38.0
2023-08-31T11:15:19.617Z,37.9
2023-08-31T11:16:31.668Z,37.8
2023-08-31T11:17:46.144Z,37.7
2023-08-31T11:18:48.474Z,37.6
2023-08-31T11:20:01.605Z,37.5
2023-08-31T11:21:03.777Z,37.5
2023-08-31T11:22:16.629Z,37.5
2023-08-31T11:23:29.097Z,37.5
2023-08-31T11:24:42.123Z,37.5
2023-08-31T11:25:44.284Z,37.4
2023-08-31T11:26:57.074Z,37.4
2023-08-31T11:28:09.084Z,37.5
2023-08-31T11:29:22.096Z,37.4
2023-08-31T11:30:24.355Z,37.4
2023-08-31T11:31:37.126Z,37.3
2023-08-31T11:32:49.287Z,37.3
2023-08-31T11:33:52.623Z,37.2
2023-08-31T11:35:04.652Z,37.1
2023-08-31T11:36:17.604Z,37.2
2023-08-31T11:37:29.672Z,37.1
2023-08-31T11:38:32.699Z,37.0
2023-08-31T11:39:44.936Z,37.0
2023-08-31T11:41:07.638Z,36.8
2023-08-31T11:42:00.066Z,36.8
2023-08-31T11:43:13.291Z,36.7
2023-08-31T11:44:25.385Z,36.7
2023-08-31T11:45:38.160Z,36.6
2023-08-31T11:46:40.595Z,36.5
2023-08-31T11:47:53.709Z,36.5
2023-08-31T11:49:05.865Z,36.5
2023-08-31T11:50:08.607Z,36.5
2023-08-31T11:51:20.673Z,36.3
2023-08-31T11:52:33.588Z,36.3
2023-08-31T11:53:45.611Z,36.3
2023-08-31T11:54:48.641Z,36.3
2023-08-31T11:56:00.780Z,36.4
2023-08-31T11:57:13.599Z,36.4
2023-08-31T11:58:15.819Z,36.5
2023-08-31T11:59:28.645Z,36.5
2023-08-31T12:00:40.733Z,36.6
2023-08-31T12:01:53.661Z,36.6
2023-08-31T12:02:56.027Z,36.8
2023-08-31T12:04:09.220Z,36.9
2023-08-31T12:05:31.017Z,36.9
2023-08-31T12:06:24.122Z,37.0
2023-08-31T12:07:36.134Z,37.0
2023-08-31T12:08:49.138Z,37.1
2023-08-31T12:09:51.309Z,37.1
2023-08-31T12:11:04.132Z,37.2
2023-08-31T12:12:16.200Z,37.3
2023-08-31T12:13:29.128Z,37.3
2023-08-31T12:14:32.376Z,37.3
2023-08-31T12:15:45.169Z,37.3
2023-08-31T12:16:57.317Z,37.4
2023-08-31T12:18:00.170Z,37.4
2023-08-31T12:19:12.310Z,37.5
2023-08-31T12:20:25.629Z,37.5
2023-08-31T12:21:27.784Z,37.5
2023-08-31T12:22:40.609Z,37.5
2023-08-31T12:23:52.638Z,37.6
2023-08-31T12:25:05.699Z,37.6
2023-08-31T12:26:08.038Z,37.6
2023-08-31T12:27:21.131Z,37.6
2023-08-31T12:28:33.147Z,37.7
2023-08-31T12:29:46.162Z,37.7
2023-08-31T12:30:48.397Z,37.7
2023-08-31T12:32:01.139Z,37.7
2023-08-31T12:33:13.224Z,37.7
2023-08-31T12:34:16.155Z,37.7
2023-08-31T12:35:28.260Z,37.8
2023-08-31T12:36:41.162Z,37.8
2023-08-31T12:37:43.403Z,37.9
2023-08-31T12:38:56.145Z,37.9
2023-08-31T12:40:08.343Z,37.9
